Latest Weather Observations for King Island Airport

IDT60801

Issued at 3:02 pm EST Sunday 24 September 2017 (issued every 30 minutes, with the page automatically refreshed every 10 minutes)

About weather observations | Map of weather stations | Latest weather observations for TAS | Other Formats
Station Details ID: 098017 Name: KING ISLAND AIRPORT Lat: -39.88 Lon: 143.88 Height: 37.0 m
Data from the previous 72 hours. | See also: Recent months at King Island Airport
Date/Time
EST
Temp
°C
App
Temp
°C
Dew
Point
°C
Rel
Hum
%
Delta-T
°C
Wind Press
QNH
hPa
Press
MSL
hPa
Rain since
9am
mm
Dir  Spd
km/h
Gust
km/h
Spd
kts
Gust
kts
24/03:00pm 13.2 3.3 9.8 80 1.8 NW 52 72 28 39 992.5 992.5 3.8
24/02:36pm 14.4 3.6 10.0 75 2.3 NW 57 80 31 43 992.6 992.6 3.8
24/02:30pm 13.9 4.5 10.3 79 1.9 NW 50 63 27 34 992.6 992.6 3.8
24/02:05pm 13.0 4.4 10.2 83 1.4 NW 46 67 25 36 993.0 993.0 3.6
24/02:00pm 13.1 4.9 10.5 84 1.4 NW 44 57 24 31 993.0 993.0 3.6
24/01:53pm 13.3 4.5 11.0 86 1.2 NW 48 63 26 34 993.0 993.0 3.6
24/01:36pm 12.1 2.1 10.7 91 0.7 NW 54 76 29 41 993.3 993.3 3.6
24/01:31pm 12.1 2.7 10.2 88 1.0 NW 50 65 27 35 993.3 993.3 3.0
24/01:30pm 12.1 2.3 10.2 88 1.0 NW 52 65 28 35 993.3 993.3 2.8
24/01:12pm 13.1 3.3 10.1 82 1.5 NW 52 70 28 38 993.4 993.4 2.6
24/01:00pm 14.0 5.4 10.2 78 2.0 NW 46 59 25 32 993.4 993.4 2.6
24/12:37pm 14.0 5.2 10.8 81 1.7 NW 48 69 26 37 993.6 993.6 2.6
24/12:30pm 13.6 4.5 11.1 85 1.3 NW 50 65 27 35 993.6 993.6 2.6
24/12:00pm 13.8 3.3 10.2 79 1.9 NW 56 74 30 40 993.7 993.7 2.6
24/11:52am 14.0 4.8 11.0 82 1.6 NW 50 69 27 37 993.7 993.7 2.6
24/11:30am 13.1 4.6 10.8 86 1.2 NW 46 61 25 33 993.7 993.7 2.6
24/11:00am 13.5 6.5 11.2 86 1.2 NW 39 50 21 27 993.8 993.8 2.4
24/10:47am 12.0 6.6 10.9 93 0.6 WNW 30 50 16 27 994.0 994.0 2.4
24/10:41am 11.6 6.1 10.7 94 0.5 WNW 30 46 16 25 994.0 994.0 2.4
24/10:30am 10.7 3.6 9.6 93 0.6 WNW 37 48 20 26 994.2 994.2 2.4
24/10:17am 10.7 2.6 8.6 87 1.0 WNW 41 56 22 30 994.3 994.3 1.0
24/10:00am 12.9 4.1 9.7 81 1.7 NW 46 65 25 35 993.9 993.9 0.0
24/09:57am 12.8 4.3 9.4 80 1.7 NW 44 65 24 35 993.9 993.9 0.0
24/09:30am 14.0 5.9 10.2 78 2.0 NW 43 56 23 30 994.0 994.0 0.0
24/09:00am 13.3 4.8 9.4 77 2.0 NW 44 54 24 29 994.1 994.1 3.6
24/08:33am 13.1 4.0 8.6 74 2.3 NW 46 67 25 36 993.9 993.9 3.6
24/08:30am 13.1 4.0 8.4 73 2.3 NW 46 59 25 32 993.9 993.9 3.6
24/08:00am 12.3 3.6 7.6 73 2.3 NW 43 59 23 32 993.9 993.9 3.6
24/07:56am 12.3 4.2 7.2 71 2.5 NW 39 59 21 32 993.8 993.8 3.6
24/07:30am 11.7 2.9 8.0 78 1.8 NW 44 59 24 32 993.7 993.7 3.6
24/07:00am 12.7 5.2 9.5 81 1.6 NW 39 48 21 26 993.6 993.6 3.6
24/06:30am 12.4 6.1 9.8 84 1.3 NW 33 43 18 23 993.3 993.3 3.6
24/06:00am 12.7 5.6 9.5 81 1.6 NW 37 48 20 26 993.4 993.4 3.6
24/05:30am 12.7 5.2 9.3 80 1.7 NW 39 52 21 28 993.4 993.4 3.6
24/05:06am 12.6 5.5 9.4 81 1.6 WNW 37 56 20 30 993.3 993.3 3.6
24/05:00am 12.5 4.4 8.8 78 1.9 WNW 41 56 22 30 993.3 993.3 3.6
24/04:30am 12.6 5.4 9.2 80 1.7 NW 37 52 20 28 993.5 993.5 3.6
24/04:00am 12.5 5.1 9.7 83 1.4 WNW 39 50 21 27 993.4 993.4 3.6
24/03:50am 12.3 4.4 9.3 82 1.5 WNW 41 59 22 32 993.5 993.5 3.6
24/03:30am 12.4 3.1 9.2 81 1.6 WNW 48 57 26 31 993.8 993.8 3.6
24/03:00am 12.4 4.0 9.8 84 1.3 WNW 44 59 24 32 993.9 993.9 3.6
24/02:30am 12.5 4.1 9.5 82 1.5 WNW 44 54 24 29 994.3 994.3 3.6
24/02:00am 12.5 4.2 9.5 82 1.5 WNW 43 56 23 30 994.2 994.2 3.6
24/01:37am 12.7 4.6 9.9 83 1.4 NW 43 61 23 33 994.3 994.3 3.6
24/01:30am 12.7 4.4 10.2 85 1.3 WNW 44 56 24 30 994.4 994.4 3.6
24/01:00am 12.6 3.9 10.0 84 1.3 WNW 46 57 25 31 994.6 994.6 3.6
24/12:30am 12.6 4.4 10.5 87 1.1 NW 44 56 24 30 994.6 994.6 3.6
24/12:00am 12.8 4.8 10.3 85 1.3 WNW 43 57 23 31 994.7 994.7 3.6
 
Date/Time
EST
Temp
°C
App
Temp
°C
Dew
Point
°C
Rel
Hum
%
Delta-T
°C
Wind Press
QNH
hPa
Press
MSL
hPa
Rain since
9am
mm
Dir  Spd
km/h
Gust
km/h
Spd
kts
Gust
kts
23/11:46pm 12.6 4.3 10.1 85 1.3 WNW 44 63 24 34 994.7 994.7 3.6
23/11:30pm 12.3 3.2 10.0 86 1.2 NW 48 63 26 34 994.6 994.6 3.6
23/11:00pm 13.2 5.3 10.9 86 1.2 WNW 43 56 23 30 994.7 994.7 3.6
23/10:30pm 13.2 4.3 10.7 85 1.3 NW 48 61 26 33 994.8 994.8 3.6
23/10:00pm 13.1 5.0 10.6 85 1.3 NW 44 57 24 31 994.7 994.7 3.6
23/09:30pm 13.1 3.8 10.6 85 1.3 WNW 50 59 27 32 994.7 994.7 3.6
23/09:00pm 13.2 4.2 10.4 83 1.5 WNW 48 61 26 33 994.5 994.5 3.6
23/08:30pm 13.1 3.2 9.9 81 1.6 WNW 52 70 28 38 994.0 994.0 3.6
23/08:15pm 13.4 5.0 10.9 85 1.3 WNW 46 65 25 35 993.9 993.9 3.6
23/08:00pm 13.5 5.1 10.9 84 1.4 WNW 46 63 25 34 993.6 993.6 3.6
23/07:30pm 13.5 5.8 11.6 88 1.0 NW 43 54 23 29 993.3 993.3 3.6
23/07:17pm 13.3 5.3 11.2 87 1.1 NW 44 63 24 34 993.2 993.2 3.6
23/07:00pm 13.3 6.0 11.5 89 1.0 NW 41 57 22 31 993.0 993.0 3.6
23/06:57pm 13.3 6.4 11.5 89 1.0 NW 39 57 21 31 993.0 993.0 3.6
23/06:30pm 13.2 7.1 11.9 92 0.7 NNW 35 43 19 23 993.1 993.1 3.6
23/06:00pm 13.0 8.3 11.9 93 0.6 NW 28 35 15 19 992.7 992.7 3.6
23/05:30pm 12.9 8.2 12.0 94 0.5 NW 28 37 15 20 992.5 992.5 3.6
23/05:00pm 12.8 8.0 11.5 92 0.7 NW 28 37 15 20 993.0 993.0 3.2
23/04:30pm 12.8 7.8 10.9 88 1.0 NW 28 37 15 20 992.9 992.9 2.6
23/04:00pm 13.3 7.5 11.5 89 1.0 WNW 33 46 18 25 993.3 993.3 2.4
23/03:37pm 13.5 7.1 11.9 90 0.9 WNW 37 56 20 30 992.8 992.8 2.2
23/03:32pm 13.3 5.7 11.9 91 0.8 WNW 43 61 23 33 993.5 993.5 2.2
23/03:30pm 13.5 5.8 12.2 92 0.7 WNW 44 61 24 33 993.3 993.3 2.2
23/03:18pm 14.1 9.8 13.3 95 0.4 NW 28 48 15 26 993.5 993.5 1.8
23/03:08pm 14.5 10.9 13.2 92 0.7 NNW 24 28 13 15 992.6 992.6 1.0
23/03:00pm 15.0 11.8 13.2 89 1.0 NNW 22 28 12 15 992.2 992.2 0.0
23/02:30pm 16.4 12.5 12.2 76 2.3 NNW 24 28 13 15 991.7 991.7 0.0
23/02:00pm 17.7 14.8 14.0 79 2.1 NNW 22 26 12 14 991.5 991.5 0.0
23/01:30pm 17.4 15.6 13.3 77 2.3 NNE 15 20 8 11 991.5 991.5 0.0
23/01:00pm 17.1 16.0 14.4 84 1.6 NE 13 19 7 10 992.0 992.0 0.0
23/12:30pm 15.4 13.3 13.6 89 1.0 ENE 17 22 9 12 991.3 991.3 0.0
23/12:00pm 15.1 12.7 13.8 92 0.7 ENE 19 28 10 15 991.4 991.4 0.0
23/11:30am 15.5 13.1 13.7 89 1.0 E 19 26 10 14 992.1 992.1 0.0
23/11:22am 15.7 14.7 13.5 87 1.2 SE 11 15 6 8 993.1 993.1 0.0
23/11:00am 15.4 14.5 12.5 83 1.6 NE 9 13 5 7 995.1 995.1 0.0
23/10:30am 14.6 13.8 12.8 89 1.0 NE 9 15 5 8 995.4 995.4 0.0
23/10:12am 14.6 13.5 12.1 85 1.4 NE 9 13 5 7 995.5 995.5 0.0
23/10:00am 15.0 13.4 12.9 87 1.2 NNW 13 17 7 9 997.5 997.5 0.0
23/09:30am 14.6 14.9 13.3 92 0.7 N 4 7 2 4 996.3 996.3 0.0
23/09:00am 14.2 14.2 13.6 96 0.3 E 6 11 3 6 996.4 996.4 1.4
23/08:30am 14.0 15.0 13.2 95 0.4 CALM 0 0 0 0 997.2 997.2 1.4
23/08:00am 13.7 12.5 12.9 95 0.4 W 11 15 6 8 997.7 997.7 1.2
23/07:30am 13.6 12.1 13.0 96 0.3 SW 13 17 7 9 998.1 998.1 1.2
23/07:00am 13.4 11.0 12.8 96 0.3 SW 17 24 9 13 997.9 997.9 1.2
23/06:30am 13.8 9.8 12.9 94 0.5 W 26 37 14 20 999.2 999.2 1.2
23/06:26am 13.8 9.8 12.9 94 0.5 WSW 26 37 14 20 999.1 999.1 1.2
23/06:14am 14.0 9.2 12.9 93 0.6 WNW 30 48 16 26 998.6 998.6 1.0
23/06:09am 14.1 8.8 13.0 93 0.6 WNW 33 48 18 26 1000.9 1000.9 0.8
23/06:00am 14.5 9.3 12.9 90 0.9 WNW 32 44 17 24 999.8 999.8 0.0
23/05:49am 14.5 11.4 12.2 86 1.2 WNW 20 35 11 19 999.1 999.1 0.0
23/05:30am 13.2 13.6 11.3 88 1.0 CALM 0 0 0 0 997.0 997.0 0.0
23/05:00am 13.2 12.4 11.1 87 1.1 NE 6 7 3 4 996.5 996.5 0.0
23/04:30am 13.6 12.5 10.8 83 1.5 NE 7 9 4 5 996.9 996.9 0.0
23/04:00am 15.3 13.6 11.3 77 2.2 N 11 17 6 9 997.9 997.9 0.0
23/03:30am 15.4 12.2 11.2 76 2.2 N 19 26 10 14 998.2 998.2 0.0
23/03:00am 15.3 12.4 11.1 76 2.3 N 17 20 9 11 998.2 998.2 0.0
23/02:30am 15.0 12.0 11.8 81 1.7 N 19 26 10 14 999.1 999.1 0.0
23/02:00am 14.2 13.1 11.9 86 1.2 WNW 9 19 5 10 1000.3 1000.3 0.0
23/01:30am 12.8 10.8 11.5 92 0.7 ENE 13 17 7 9 999.7 999.7 0.0
23/01:00am 12.3 9.5 11.5 95 0.4 ESE 17 20 9 11 1000.1 1000.1 0.0
23/12:30am 12.2 9.4 11.4 95 0.4 E 17 22 9 12 1000.4 1000.4 0.0
23/12:00am 12.5 9.8 11.6 94 0.5 E 17 19 9 10 1000.8 1000.8 0.0
 
Date/Time
EST
Temp
°C
App
Temp
°C
Dew
Point
°C
Rel
Hum
%
Delta-T
°C
Wind Press
QNH
hPa
Press
MSL
hPa
Rain since
9am
mm
Dir  Spd
km/h
Gust
km/h
Spd
kts
Gust
kts
22/11:30pm 12.9 10.2 11.8 93 0.6 ENE 17 22 9 12 1001.2 1001.2 0.0
22/11:00pm 12.7 10.4 11.6 93 0.6 E 15 20 8 11 1001.9 1001.9 0.0
22/10:30pm 12.8 10.4 11.5 92 0.7 E 15 20 8 11 1002.4 1002.4 0.0
22/10:00pm 12.8 10.0 11.5 92 0.7 ENE 17 20 9 11 1002.9 1002.9 0.0
22/09:30pm 12.7 9.9 11.4 92 0.7 E 17 24 9 13 1003.3 1003.3 0.0
22/09:00pm 12.5 9.3 11.2 92 0.7 ENE 19 26 10 14 1003.5 1003.5 0.0
22/08:30pm 12.4 8.9 11.0 91 0.7 ENE 20 28 11 15 1003.8 1003.8 0.0
22/08:00pm 12.0 8.4 10.4 90 0.8 E 20 30 11 16 1004.2 1004.2 0.0
22/07:30pm 12.1 8.1 10.3 89 0.9 ENE 22 28 12 15 1004.2 1004.2 0.0
22/07:00pm 12.3 9.3 10.7 90 0.8 ENE 17 20 9 11 1004.7 1004.7 0.0
22/06:30pm 12.3 8.3 10.4 88 1.0 ENE 22 28 12 15 1004.5 1004.5 0.0
22/06:00pm 12.5 8.1 10.4 87 1.1 ENE 24 37 13 20 1003.8 1003.8 0.0
22/05:30pm 12.7 7.5 10.4 86 1.2 ENE 28 37 15 20 1004.4 1004.4 0.0
22/05:00pm 13.0 7.8 10.4 84 1.4 ENE 28 37 15 20 1004.5 1004.5 0.0
22/04:30pm 13.5 9.2 10.7 83 1.5 ENE 24 33 13 18 1005.1 1005.2 0.0
22/04:00pm 14.0 9.7 10.6 80 1.8 ENE 24 30 13 16 1005.5 1005.6 0.0
22/03:30pm 15.0 10.4 11.0 77 2.1 ENE 26 32 14 17 1005.6 1005.7 0.0
22/03:00pm 14.6 9.4 10.4 76 2.2 ENE 28 37 15 20 1005.7 1005.8 0.0
22/02:30pm 14.7 11.0 10.3 75 2.3 NNE 20 30 11 16 1006.4 1006.5 0.0
22/02:00pm 15.1 11.4 10.1 72 2.6 NNE 20 32 11 17 1006.5 1006.6 0.0
22/01:30pm 14.7 11.0 10.1 74 2.4 NNE 20 30 11 16 1006.7 1006.8 0.0
22/01:00pm 14.4 9.7 9.2 71 2.7 NNE 24 33 13 18 1007.0 1007.1 0.0
22/12:30pm 15.8 11.6 9.7 67 3.2 NE 22 28 12 15 1007.3 1007.4 0.0
22/12:00pm 15.2 11.6 10.0 71 2.7 NNE 19 26 10 14 1007.6 1007.7 0.0
22/11:30am 14.9 11.5 9.3 69 2.9 NNE 17 24 9 13 1008.1 1008.2 0.0
22/11:00am 14.7 11.7 9.3 70 2.8 N 15 20 8 11 1008.6 1008.7 0.0
22/10:30am 13.8 10.9 9.8 77 2.1 N 15 20 8 11 1009.0 1009.1 0.0
22/10:00am 12.9 9.6 9.7 81 1.6 N 17 22 9 12 1009.4 1009.5 0.0
22/09:30am 13.1 10.4 10.3 83 1.5 NNE 15 22 8 12 1009.6 1009.7 0.0
22/09:00am 12.4 10.2 9.4 82 1.5 NNE 11 13 6 7 1009.5 1009.6 0.0
22/08:30am 12.0 10.8 10.4 90 0.8 NE 7 9 4 5 1009.6 1009.7 0.0
22/08:00am 10.9 9.6 10.0 94 0.5 ESE 7 7 4 4 1009.2 1009.3 0.0
22/07:30am 9.5 7.9 8.9 96 0.3 E 7 9 4 5 1009.2 1009.3 0.0
22/07:00am 8.1 6.2 7.7 97 0.2 ESE 7 9 4 5 1009.3 1009.4 0.0
22/06:30am 6.4 3.7 5.8 96 0.3 ESE 9 11 5 6 1009.2 1009.3 0.0
22/06:00am 6.6 4.0 5.9 95 0.3 ESE 9 11 5 6 1009.1 1009.2 0.0
22/05:30am 6.7 4.0 5.7 93 0.4 ESE 9 11 5 6 1009.1 1009.2 0.0
22/05:00am 8.0 7.2 6.6 91 0.6 CALM 0 0 0 0 1009.0 1009.1 0.0
22/04:30am 10.2 8.5 8.5 89 0.8 W 7 13 4 7 1009.2 1009.3 0.0
22/04:00am 10.1 8.5 8.2 88 0.9 WNW 6 11 3 6 1009.3 1009.4 0.0
22/03:30am 10.3 7.9 8.6 89 0.8 WNW 11 15 6 8 1009.5 1009.6 0.0
22/03:00am 10.0 8.4 8.1 88 0.9 W 6 7 3 4 1009.6 1009.7 0.0
22/02:30am 10.1 7.6 8.2 88 0.9 W 11 15 6 8 1009.6 1009.7 0.0
22/02:00am 10.3 7.8 8.1 86 1.1 W 11 13 6 7 1009.7 1009.8 0.0
22/01:30am 10.7 7.8 8.3 85 1.2 W 13 15 7 8 1010.2 1010.2 0.0
22/01:00am 11.1 8.3 8.5 84 1.3 W 13 19 7 10 1010.4 1010.4 0.0
22/12:30am 11.2 8.0 8.4 83 1.4 W 15 22 8 12 1010.5 1010.5 0.0
22/12:00am 11.2 7.6 8.2 82 1.5 W 17 24 9 13 1010.4 1010.4 0.0
 
Date/Time
EST
Temp
°C
App
Temp
°C
Dew
Point
°C
Rel
Hum
%
Delta-T
°C
Wind Press
QNH
hPa
Press
MSL
hPa
Rain since
9am
mm
Dir  Spd
km/h
Gust
km/h
Spd
kts
Gust
kts
21/11:30pm 11.3 7.4 8.5 83 1.4 W 19 28 10 15 1010.6 1010.6 0.0
21/11:00pm 11.3 7.2 8.0 80 1.6 W 19 24 10 13 1010.7 1010.7 0.0
21/10:30pm 11.3 7.7 8.3 82 1.5 W 17 22 9 12 1010.8 1010.8 0.0
21/10:00pm 11.5 7.4 8.5 82 1.5 W 20 28 11 15 1010.9 1010.9 0.0
21/09:30pm 11.3 7.7 8.2 81 1.5 W 17 22 9 12 1010.8 1010.8 0.0
21/09:00pm 11.0 7.6 7.7 80 1.6 W 15 20 8 11 1010.7 1010.7 0.0
21/08:30pm 11.2 7.5 8.1 81 1.5 W 17 24 9 13 1010.4 1010.4 0.0
21/08:00pm 10.9 7.2 7.8 81 1.5 WSW 17 22 9 12 1010.3 1010.3 0.0
21/07:30pm 11.1 7.4 7.8 80 1.6 W 17 20 9 11 1010.2 1010.2 0.0
21/07:00pm 11.4 6.7 7.9 79 1.7 W 22 30 12 16 1009.7 1009.8 0.0
21/06:30pm 11.6 6.3 8.3 80 1.6 WSW 26 33 14 18 1009.3 1009.4 0.0
21/06:00pm 11.8 7.2 8.1 78 1.8 WSW 22 33 12 18 1009.0 1009.1 0.0
21/05:30pm 12.4 8.2 8.3 76 2.0 W 20 30 11 16 1008.6 1008.7 0.0
21/05:00pm 13.0 9.1 9.3 78 1.9 WSW 20 30 11 16 1008.0 1008.1 0.0
21/04:30pm 12.9 7.7 9.0 77 2.0 WSW 26 33 14 18 1007.6 1007.7 0.0
21/04:00pm 13.5 8.2 9.9 79 1.9 WSW 28 35 15 19 1007.4 1007.5 0.0
21/03:30pm 13.4 8.2 10.4 82 1.6 WSW 28 37 15 20 1007.2 1007.3 0.0
21/03:20pm 13.4 8.2 10.2 81 1.7 WSW 28 39 15 21 1007.1 1007.2 0.0

Other Formats:

Comma delimited format used in spreadsheet applications
http://www.bom.gov.au/fwo/IDT60801/IDT60801.94850.axf

JavaScript Object Notation format (JSON) in row-major order
http://www.bom.gov.au/fwo/IDT60801/IDT60801.94850.json